Sugarloaf Key, Florida
Current Conditions -  °F | °C
As of 12:53 PM on Saturday 25 Oct 2014 (Local Time) from KNQX Reporting Station
Clear Clear  
Wind Chill: 80°   Ceiling: Unl
Heat Index: 82°   Visibility: 10mi
Dew Point: 66°   Wind: 15mph
Humidity: 62%   Direction: 350°N
Pressure: 29.93"   Gusts: NA
Location:  24.6465°N, 81.5399°W
Report Text: KNQX 251653Z 35013KT 10SM CLR 27/19 A2993 RMK AO2 SLP135 T02670189 $
Loading
Personal Weather Stations






























Interactive Weather Map
Tropical Storm Tracking
New forecast layout! Learn more

10-Day Weather Forecast

Advertisements
Track Severe Weather on mobile